createdAt,value
2019-01-21T00:02:22.855Z,20.57
2019-01-21T00:07:24.238Z,21.07
2019-01-21T00:12:25.570Z,25.97
2019-01-21T00:17:26.970Z,22.50
2019-01-21T00:22:28.318Z,22.67
2019-01-21T00:27:29.665Z,21.00
2019-01-21T00:32:31.060Z,22.20
2019-01-21T00:37:32.495Z,20.37
2019-01-21T00:42:33.886Z,21.23
2019-01-21T00:47:35.230Z,22.60
2019-01-21T00:52:36.682Z,20.20
2019-01-21T00:57:38.182Z,23.17
2019-01-21T01:02:39.552Z,19.03
2019-01-21T01:07:41.103Z,21.63
2019-01-21T01:12:42.577Z,20.97
2019-01-21T01:17:43.918Z,22.40
2019-01-21T01:22:45.471Z,23.63
2019-01-21T01:27:46.947Z,24.17
2019-01-21T01:32:48.347Z,22.77
2019-01-21T01:37:49.678Z,22.53
2019-01-21T01:42:51.175Z,22.53
2019-01-21T01:47:57.449Z,22.57
2019-01-21T01:52:59.178Z,22.87
2019-01-21T01:58:00.719Z,23.60
2019-01-21T02:03:02.536Z,23.20
2019-01-21T02:08:04.021Z,24.17
2019-01-21T02:13:05.712Z,21.67
2019-01-21T02:18:07.243Z,20.70
2019-01-21T02:23:12.577Z,19.87
2019-01-21T02:28:35.121Z,22.33
2019-01-21T02:34:05.087Z,22.73
2019-01-21T02:39:21.468Z,20.97
2019-01-21T02:44:45.076Z,22.67
2019-01-21T02:50:16.775Z,20.30
2019-01-21T02:55:39.091Z,19.37
2019-01-21T03:01:03.909Z,21.80
2019-01-21T03:06:19.912Z,20.07
2019-01-21T03:12:02.998Z,19.83
2019-01-21T03:17:37.507Z,18.67
2019-01-21T03:23:02.381Z,18.53
2019-01-21T03:28:21.821Z,19.33
2019-01-21T03:33:37.861Z,23.67
2019-01-21T03:38:56.898Z,18.20
2019-01-21T03:44:09.711Z,24.07
2019-01-21T03:49:32.049Z,21.70
2019-01-21T03:54:33.933Z,19.50
2019-01-21T04:00:07.386Z,20.90
2019-01-21T04:05:18.333Z,18.77
2019-01-21T04:11:18.471Z,19.93
2019-01-21T04:16:31.380Z,19.37
2019-01-21T04:21:54.660Z,18.23
2019-01-21T04:27:23.152Z,19.67
2019-01-21T04:32:54.655Z,20.53
2019-01-21T04:38:01.818Z,19.47
2019-01-21T04:43:35.991Z,21.73
2019-01-21T04:49:04.343Z,18.43
2019-01-21T04:54:41.639Z,19.87
2019-01-21T04:59:51.434Z,24.70
2019-01-21T05:05:04.340Z,22.23
2019-01-21T05:10:32.507Z,20.57
2019-01-21T05:15:43.484Z,21.87
2019-01-21T05:21:21.275Z,21.57
2019-01-21T05:26:34.392Z,24.13
2019-01-21T05:32:02.841Z,21.33
2019-01-21T05:37:22.714Z,27.57
2019-01-21T05:42:41.514Z,25.97
2019-01-21T05:48:04.053Z,22.97
2019-01-21T05:53:17.351Z,21.53
2019-01-21T05:58:47.327Z,22.23
2019-01-21T06:04:37.007Z,24.17
2019-01-21T06:10:00.931Z,22.90
2019-01-21T06:15:23.513Z,23.57
2019-01-21T06:20:54.909Z,25.17
2019-01-21T06:26:32.214Z,21.20
2019-01-21T06:31:53.825Z,21.63
2019-01-21T06:37:21.828Z,20.97
2019-01-21T06:42:28.954Z,28.67
2019-01-21T06:47:54.159Z,29.00
2019-01-21T06:53:36.420Z,29.60
2019-01-21T06:58:52.411Z,29.90
2019-01-21T07:04:19.479Z,25.10
2019-01-21T07:10:06.511Z,24.23
2019-01-21T07:15:18.886Z,24.43
2019-01-21T07:20:55.864Z,22.73
2019-01-21T07:26:29.902Z,21.80
2019-01-21T07:31:39.805Z,22.77
2019-01-21T07:36:58.782Z,25.00
2019-01-21T07:42:17.584Z,23.07
2019-01-21T07:47:42.787Z,20.33
2019-01-21T07:53:08.063Z,21.83
2019-01-21T07:58:45.724Z,25.17
2019-01-21T08:04:04.605Z,24.50
2019-01-21T08:09:36.528Z,23.07
2019-01-21T08:14:46.449Z,22.77
2019-01-21T08:19:59.490Z,20.40
2019-01-21T08:25:23.019Z,27.17
2019-01-21T08:30:45.426Z,23.63
2019-01-21T08:35:56.503Z,26.27
2019-01-21T08:41:07.761Z,24.87
2019-01-21T08:46:26.791Z,24.67
2019-01-21T08:51:56.331Z,22.63
2019-01-21T08:57:09.128Z,28.30
2019-01-21T09:02:31.518Z,25.20
2019-01-21T09:07:53.455Z,26.17
2019-01-21T09:13:18.327Z,24.60
2019-01-21T09:18:39.959Z,20.83
2019-01-21T09:24:10.160Z,23.03
2019-01-21T09:29:35.125Z,23.33
2019-01-21T09:34:57.408Z,23.20
2019-01-21T09:40:27.723Z,24.00
2019-01-21T09:45:54.699Z,23.80
2019-01-21T09:51:01.540Z,21.07
2019-01-21T09:56:04.352Z,21.30
2019-01-21T10:01:07.753Z,20.50
2019-01-21T10:06:09.402Z,21.83
2019-01-21T10:11:16.594Z,18.83
2019-01-21T10:16:28.978Z,19.17
2019-01-21T10:21:50.539Z,19.27
2019-01-21T10:27:12.735Z,17.83
2019-01-21T10:32:55.203Z,18.00
2019-01-21T10:38:23.799Z,18.43
2019-01-21T10:44:08.725Z,19.07
2019-01-21T10:49:48.135Z,19.70
2019-01-21T10:55:29.703Z,19.23
2019-01-21T11:01:02.698Z,24.87
2019-01-21T11:06:09.762Z,21.23
2019-01-21T11:11:28.656Z,20.47
2019-01-21T11:16:44.710Z,20.83
2019-01-21T11:21:51.863Z,25.33
2019-01-21T11:27:04.731Z,20.70
2019-01-21T11:32:43.287Z,21.03
2019-01-21T11:38:20.847Z,25.23
2019-01-21T11:43:46.179Z,24.37
2019-01-21T11:49:28.583Z,27.33
2019-01-21T11:55:09.434Z,25.83
2019-01-21T12:00:50.207Z,23.53
2019-01-21T12:05:56.580Z,24.80
2019-01-21T12:11:12.809Z,24.53
2019-01-21T12:16:47.480Z,20.73
2019-01-21T12:22:03.863Z,18.17
2019-01-21T12:27:32.386Z,22.73
2019-01-21T12:33:19.044Z,18.73
2019-01-21T12:38:54.971Z,21.13
2019-01-21T12:44:29.436Z,21.47
2019-01-21T12:49:55.036Z,22.50
2019-01-21T12:55:10.107Z,19.20
2019-01-21T13:00:41.646Z,20.50
2019-01-21T13:05:48.747Z,17.20
2019-01-21T13:10:55.848Z,19.47
2019-01-21T13:16:26.557Z,14.67
2019-01-21T13:22:22.753Z,16.40
2019-01-21T13:27:47.992Z,15.40
2019-01-21T13:33:27.220Z,16.63
2019-01-21T13:38:55.642Z,17.60
2019-01-21T13:44:14.330Z,15.20
2019-01-21T13:49:30.169Z,18.73
2019-01-21T13:54:40.259Z,14.57
2019-01-21T14:00:13.383Z,12.93
2019-01-21T14:05:47.965Z,14.70
2019-01-21T14:11:01.271Z,17.83
2019-01-21T14:16:41.321Z,15.60
2019-01-21T14:22:03.724Z,18.23
2019-01-21T14:27:36.832Z,19.00
2019-01-21T14:33:05.023Z,18.73
2019-01-21T14:38:15.275Z,18.13
2019-01-21T14:43:41.888Z,22.83
2019-01-21T14:49:21.275Z,20.17
2019-01-21T14:54:36.700Z,19.50
2019-01-21T15:00:13.640Z,18.67
2019-01-21T15:05:47.903Z,23.20
2019-01-21T15:11:31.159Z,25.00
2019-01-21T15:16:50.368Z,21.37
2019-01-21T15:22:06.085Z,21.57
2019-01-21T15:27:36.340Z,21.07
2019-01-21T15:32:46.631Z,18.50
2019-01-21T15:38:08.968Z,26.47
2019-01-21T15:43:31.226Z,33.33
2019-01-21T15:48:44.031Z,26.43
2019-01-21T15:54:19.662Z,23.13
2019-01-21T15:59:41.706Z,21.53
2019-01-21T16:05:19.465Z,22.77
2019-01-21T16:10:50.919Z,21.83
2019-01-21T16:16:23.800Z,19.73
2019-01-21T16:21:36.729Z,19.93
2019-01-21T16:26:43.816Z,21.03
2019-01-21T16:31:49.514Z,21.07
2019-01-21T16:36:59.771Z,20.23
2019-01-21T16:42:13.340Z,18.73
2019-01-21T16:47:14.922Z,23.07
2019-01-21T16:52:16.339Z,30.80
2019-01-21T16:57:17.731Z,37.37
2019-01-21T17:02:19.164Z,44.87
2019-01-21T17:07:20.638Z,38.80
2019-01-21T17:12:21.991Z,31.67
2019-01-21T17:17:23.403Z,26.77
2019-01-21T17:22:24.823Z,25.80
2019-01-21T17:27:26.227Z,27.53
2019-01-21T17:32:27.657Z,24.77
2019-01-21T17:37:29.075Z,26.33
2019-01-21T17:42:30.521Z,23.53
2019-01-21T17:47:31.950Z,23.50
2019-01-21T17:52:33.361Z,24.50
2019-01-21T17:57:35.662Z,23.10
2019-01-21T18:02:37.108Z,26.03
2019-01-21T18:07:39.599Z,23.73
2019-01-21T18:12:41.042Z,23.63
2019-01-21T18:17:42.439Z,24.90
2019-01-21T18:22:43.952Z,25.33
2019-01-21T18:27:45.543Z,24.63
2019-01-21T18:32:46.989Z,28.53
2019-01-21T18:37:49.709Z,30.17
2019-01-21T18:42:52.285Z,24.57
2019-01-21T18:47:53.742Z,30.00
2019-01-21T18:52:55.238Z,26.30
2019-01-21T18:57:56.763Z,31.97
2019-01-21T19:02:58.180Z,29.63
2019-01-21T19:07:59.611Z,28.93
2019-01-21T19:13:01.095Z,27.97
2019-01-21T19:18:03.164Z,26.17
2019-01-21T19:23:04.658Z,27.63
2019-01-21T19:28:06.034Z,26.27
2019-01-21T19:33:07.554Z,26.73
2019-01-21T19:38:09.046Z,29.53
2019-01-21T19:43:10.383Z,29.20
2019-01-21T19:48:11.783Z,26.90
2019-01-21T19:53:13.119Z,35.00
2019-01-21T19:58:14.602Z,33.50
2019-01-21T20:03:15.978Z,30.50
2019-01-21T20:08:17.454Z,28.37
2019-01-21T20:13:18.908Z,28.70
2019-01-21T20:18:21.297Z,31.70
2019-01-21T20:23:22.630Z,31.83
2019-01-21T20:28:24.030Z,30.20
2019-01-21T20:33:25.406Z,33.03
2019-01-21T20:38:26.847Z,32.17
2019-01-21T20:43:28.219Z,33.13
2019-01-21T20:48:29.712Z,28.40
2019-01-21T20:53:31.154Z,33.70
2019-01-21T20:58:33.556Z,33.23
2019-01-21T21:03:34.992Z,32.80
2019-01-21T21:08:36.360Z,33.40
2019-01-21T21:13:37.720Z,33.80
2019-01-21T21:18:39.093Z,31.67
2019-01-21T21:23:40.471Z,35.30
2019-01-21T21:28:41.896Z,32.47
2019-01-21T21:33:43.353Z,31.33
2019-01-21T21:38:44.723Z,31.47
2019-01-21T21:43:46.112Z,30.40
2019-01-21T21:48:47.479Z,32.53
2019-01-21T21:53:49.052Z,29.43
2019-01-21T21:58:50.414Z,34.80
2019-01-21T22:03:51.781Z,33.17
2019-01-21T22:08:53.111Z,34.90
2019-01-21T22:13:54.616Z,30.30
2019-01-21T22:18:55.941Z,30.30
2019-01-21T22:23:57.416Z,32.73
2019-01-21T22:28:59.112Z,30.23
2019-01-21T22:34:00.445Z,32.77
2019-01-21T22:39:05.344Z,29.90
2019-01-21T22:44:06.760Z,34.47
2019-01-21T22:49:08.178Z,32.53
2019-01-21T22:54:09.611Z,30.17
2019-01-21T22:59:10.943Z,27.37
2019-01-21T23:04:12.348Z,30.07
2019-01-21T23:09:13.775Z,29.00
2019-01-21T23:14:15.475Z,26.60
2019-01-21T23:19:16.810Z,26.73
2019-01-21T23:24:18.193Z,27.50
2019-01-21T23:29:19.586Z,29.43
2019-01-21T23:34:21.039Z,28.03
2019-01-21T23:39:22.372Z,28.73
2019-01-21T23:44:23.760Z,27.40
2019-01-21T23:49:25.238Z,26.23
2019-01-21T23:54:26.672Z,26.80
2019-01-21T23:59:28.066Z,25.77
